sensor_id;sensor_type;location;lat;lon;timestamp;pressure;altitude;pressure_sealevel;temperature;humidity
21359;BME280;13506;50.852;20.632;2023-07-16T00:02:13;98091.25;;;20.87;69.66
21359;BME280;13506;50.852;20.632;2023-07-16T00:04:41;98087.03;;;20.93;68.79
21359;BME280;13506;50.852;20.632;2023-07-16T00:07:09;98092.63;;;20.98;69.05
21359;BME280;13506;50.852;20.632;2023-07-16T00:09:37;98096.47;;;20.96;69.89
21359;BME280;13506;50.852;20.632;2023-07-16T00:12:07;98092.16;;;20.95;70.58
21359;BME280;13506;50.852;20.632;2023-07-16T00:14:35;98099.91;;;21.04;68.95
21359;BME280;13506;50.852;20.632;2023-07-16T00:17:04;98092.38;;;20.93;70.30
21359;BME280;13506;50.852;20.632;2023-07-16T00:19:32;98094.56;;;20.89;71.13
21359;BME280;13506;50.852;20.632;2023-07-16T00:22:00;98090.06;;;20.90;70.40
21359;BME280;13506;50.852;20.632;2023-07-16T00:24:28;98084.72;;;20.75;70.89
21359;BME280;13506;50.852;20.632;2023-07-16T00:26:56;98090.78;;;20.84;71.70
21359;BME280;13506;50.852;20.632;2023-07-16T00:29:26;98075.13;;;20.89;71.05
21359;BME280;13506;50.852;20.632;2023-07-16T00:31:54;98085.94;;;20.87;71.23
21359;BME280;13506;50.852;20.632;2023-07-16T00:34:22;98095.75;;;20.87;71.15
21359;BME280;13506;50.852;20.632;2023-07-16T00:36:50;98084.72;;;20.90;70.84
21359;BME280;13506;50.852;20.632;2023-07-16T00:39:18;98083.81;;;20.83;71.19
21359;BME280;13506;50.852;20.632;2023-07-16T00:41:46;98075.75;;;20.91;69.99
21359;BME280;13506;50.852;20.632;2023-07-16T00:44:14;98071.91;;;20.94;69.93
21359;BME280;13506;50.852;20.632;2023-07-16T00:46:44;98071.91;;;20.94;70.12
21359;BME280;13506;50.852;20.632;2023-07-16T00:49:13;98075.28;;;20.87;71.06
21359;BME280;13506;50.852;20.632;2023-07-16T00:51:41;98075.59;;;20.93;69.95
21359;BME280;13506;50.852;20.632;2023-07-16T00:54:10;98069.16;;;20.87;71.12
21359;BME280;13506;50.852;20.632;2023-07-16T00:56:39;98071.44;;;20.75;71.93
21359;BME280;13506;50.852;20.632;2023-07-16T00:59:07;98068.53;;;20.70;71.79
21359;BME280;13506;50.852;20.632;2023-07-16T01:01:35;98071.19;;;20.70;70.72
21359;BME280;13506;50.852;20.632;2023-07-16T01:04:05;98072.16;;;20.69;70.76
21359;BME280;13506;50.852;20.632;2023-07-16T01:06:36;98072.81;;;20.56;72.67
21359;BME280;13506;50.852;20.632;2023-07-16T01:09:08;98075.75;;;20.46;73.33
21359;BME280;13506;50.852;20.632;2023-07-16T01:11:40;98063.91;;;20.49;71.77
21359;BME280;13506;50.852;20.632;2023-07-16T01:14:10;98061.00;;;20.44;72.56
21359;BME280;13506;50.852;20.632;2023-07-16T01:16:41;98063.53;;;20.37;74.07
21359;BME280;13506;50.852;20.632;2023-07-16T01:19:10;98049.59;;;20.35;73.93
21359;BME280;13506;50.852;20.632;2023-07-16T01:21:46;98051.84;;;20.23;75.75
21359;BME280;13506;50.852;20.632;2023-07-16T01:27:35;98047.16;;;20.11;76.80
21359;BME280;13506;50.852;20.632;2023-07-16T01:30:13;98055.22;;;20.17;75.79
21359;BME280;13506;50.852;20.632;2023-07-16T01:32:43;98059.78;;;20.08;76.18
21359;BME280;13506;50.852;20.632;2023-07-16T01:35:13;98056.81;;;20.03;76.94
21359;BME280;13506;50.852;20.632;2023-07-16T01:37:42;98054.47;;;20.08;77.10
21359;BME280;13506;50.852;20.632;2023-07-16T01:40:10;98060.44;;;20.11;77.27
21359;BME280;13506;50.852;20.632;2023-07-16T01:42:39;98051.75;;;20.17;75.40
21359;BME280;13506;50.852;20.632;2023-07-16T01:45:07;98049.78;;;19.96;78.22
21359;BME280;13506;50.852;20.632;2023-07-16T01:47:45;98043.50;;;19.88;80.17
21359;BME280;13506;50.852;20.632;2023-07-16T01:50:17;98044.81;;;19.70;81.45
21359;BME280;13506;50.852;20.632;2023-07-16T01:52:46;98045.41;;;19.80;80.89
21359;BME280;13506;50.852;20.632;2023-07-16T01:55:14;98048.25;;;19.78;81.83
21359;BME280;13506;50.852;20.632;2023-07-16T01:57:42;98037.81;;;19.77;82.38
21359;BME280;13506;50.852;20.632;2023-07-16T02:00:11;98039.38;;;19.63;84.27
21359;BME280;13506;50.852;20.632;2023-07-16T02:02:52;98045.06;;;19.29;90.34
21359;BME280;13506;50.852;20.632;2023-07-16T02:05:20;98050.56;;;19.19;92.84
21359;BME280;13506;50.852;20.632;2023-07-16T02:07:48;98034.47;;;19.20;91.95
21359;BME280;13506;50.852;20.632;2023-07-16T02:10:16;98046.69;;;18.98;93.73
21359;BME280;13506;50.852;20.632;2023-07-16T02:12:44;98044.34;;;19.03;94.45
21359;BME280;13506;50.852;20.632;2023-07-16T02:15:13;98046.38;;;18.93;95.33
21359;BME280;13506;50.852;20.632;2023-07-16T02:17:43;98042.56;;;18.96;95.71
21359;BME280;13506;50.852;20.632;2023-07-16T02:20:13;98040.97;;;18.78;97.88
21359;BME280;13506;50.852;20.632;2023-07-16T02:22:41;98030.88;;;18.65;99.87
21359;BME280;13506;50.852;20.632;2023-07-16T02:25:10;98038.56;;;18.28;100.00
21359;BME280;13506;50.852;20.632;2023-07-16T02:27:40;98033.09;;;18.37;100.00
21359;BME280;13506;50.852;20.632;2023-07-16T02:30:08;98025.84;;;18.31;100.00
21359;BME280;13506;50.852;20.632;2023-07-16T02:32:37;98028.66;;;18.21;100.00
21359;BME280;13506;50.852;20.632;2023-07-16T02:35:05;98037.75;;;18.11;100.00
21359;BME280;13506;50.852;20.632;2023-07-16T02:37:35;98030.50;;;18.04;100.00
21359;BME280;13506;50.852;20.632;2023-07-16T02:40:05;98036.78;;;18.12;100.00
21359;BME280;13506;50.852;20.632;2023-07-16T02:42:33;98021.22;;;18.09;100.00
21359;BME280;13506;50.852;20.632;2023-07-16T02:45:01;98032.81;;;17.99;100.00
21359;BME280;13506;50.852;20.632;2023-07-16T02:47:30;98030.19;;;17.99;100.00
21359;BME280;13506;50.852;20.632;2023-07-16T02:49:58;98027.66;;;17.90;100.00
21359;BME280;13506;50.852;20.632;2023-07-16T02:52:26;98024.72;;;17.93;100.00
21359;BME280;13506;50.852;20.632;2023-07-16T02:54:55;98022.91;;;18.01;100.00
21359;BME280;13506;50.852;20.632;2023-07-16T02:57:23;98022.53;;;18.13;100.00
21359;BME280;13506;50.852;20.632;2023-07-16T02:59:51;98021.06;;;18.10;100.00
21359;BME280;13506;50.852;20.632;2023-07-16T03:02:19;98029.47;;;17.89;100.00
21359;BME280;13506;50.852;20.632;2023-07-16T03:04:47;98030.84;;;18.10;100.00
21359;BME280;13506;50.852;20.632;2023-07-16T03:07:16;98027.84;;;18.21;100.00
21359;BME280;13506;50.852;20.632;2023-07-16T03:09:44;98033.47;;;18.18;100.00
21359;BME280;13506;50.852;20.632;2023-07-16T03:12:14;98032.16;;;18.22;100.00
21359;BME280;13506;50.852;20.632;2023-07-16T03:14:41;98038.09;;;18.24;100.00
21359;BME280;13506;50.852;20.632;2023-07-16T03:17:09;98031.78;;;18.33;100.00
21359;BME280;13506;50.852;20.632;2023-07-16T03:19:37;98034.59;;;18.23;100.00
21359;BME280;13506;50.852;20.632;2023-07-16T03:22:06;98034.78;;;18.30;100.00
21359;BME280;13506;50.852;20.632;2023-07-16T03:24:34;98034.97;;;18.20;100.00
21359;BME280;13506;50.852;20.632;2023-07-16T03:27:02;98036.78;;;18.20;100.00
21359;BME280;13506;50.852;20.632;2023-07-16T03:29:33;98026.84;;;18.22;100.00
21359;BME280;13506;50.852;20.632;2023-07-16T03:32:02;98035.63;;;18.22;100.00
21359;BME280;13506;50.852;20.632;2023-07-16T03:34:31;98038.72;;;18.34;100.00
21359;BME280;13506;50.852;20.632;2023-07-16T03:37:01;98038.56;;;18.28;100.00
21359;BME280;13506;50.852;20.632;2023-07-16T03:39:30;98035.41;;;18.32;100.00
21359;BME280;13506;50.852;20.632;2023-07-16T03:41:58;98042.38;;;18.33;100.00
21359;BME280;13506;50.852;20.632;2023-07-16T03:44:28;98040.72;;;18.32;100.00
21359;BME280;13506;50.852;20.632;2023-07-16T03:47:00;98042.53;;;18.48;100.00
21359;BME280;13506;50.852;20.632;2023-07-16T03:49:28;98045.31;;;18.46;100.00
21359;BME280;13506;50.852;20.632;2023-07-16T03:51:56;98054.13;;;18.47;100.00
21359;BME280;13506;50.852;20.632;2023-07-16T03:54:23;98055.25;;;18.53;100.00
21359;BME280;13506;50.852;20.632;2023-07-16T03:56:52;98055.47;;;18.43;100.00
21359;BME280;13506;50.852;20.632;2023-07-16T03:59:20;98050.31;;;18.41;100.00
21359;BME280;13506;50.852;20.632;2023-07-16T04:01:49;98046.66;;;18.42;100.00
21359;BME280;13506;50.852;20.632;2023-07-16T04:04:18;98051.94;;;18.59;100.00
21359;BME280;13506;50.852;20.632;2023-07-16T04:06:46;98050.91;;;18.76;100.00
21359;BME280;13506;50.852;20.632;2023-07-16T04:09:14;98051.25;;;18.65;100.00
21359;BME280;13506;50.852;20.632;2023-07-16T04:11:42;98055.72;;;18.81;100.00
21359;BME280;13506;50.852;20.632;2023-07-16T04:14:10;98053.69;;;18.83;100.00
21359;BME280;13506;50.852;20.632;2023-07-16T04:16:38;98050.59;;;18.79;100.00
21359;BME280;13506;50.852;20.632;2023-07-16T04:19:06;98054.03;;;18.88;100.00
21359;BME280;13506;50.852;20.632;2023-07-16T04:21:36;98052.56;;;18.85;100.00
21359;BME280;13506;50.852;20.632;2023-07-16T04:24:06;98059.44;;;19.03;100.00
21359;BME280;13506;50.852;20.632;2023-07-16T04:26:34;98057.03;;;19.16;100.00
21359;BME280;13506;50.852;20.632;2023-07-16T04:29:02;98046.19;;;19.34;100.00
21359;BME280;13506;50.852;20.632;2023-07-16T04:31:30;98059.19;;;19.52;100.00
21359;BME280;13506;50.852;20.632;2023-07-16T04:33:58;98059.56;;;19.72;99.22
21359;BME280;13506;50.852;20.632;2023-07-16T04:36:26;98056.84;;;19.57;99.89
21359;BME280;13506;50.852;20.632;2023-07-16T04:38:55;98068.41;;;19.64;99.12
21359;BME280;13506;50.852;20.632;2023-07-16T04:41:24;98067.28;;;19.82;98.56
21359;BME280;13506;50.852;20.632;2023-07-16T04:43:52;98062.78;;;20.05;97.87
21359;BME280;13506;50.852;20.632;2023-07-16T04:46:20;98062.34;;;20.02;97.75
21359;BME280;13506;50.852;20.632;2023-07-16T04:48:48;98061.09;;;20.13;97.79
21359;BME280;13506;50.852;20.632;2023-07-16T04:51:16;98067.91;;;20.30;96.85
21359;BME280;13506;50.852;20.632;2023-07-16T04:53:44;98063.19;;;20.40;96.38
21359;BME280;13506;50.852;20.632;2023-07-16T04:56:14;98067.69;;;20.55;96.29
21359;BME280;13506;50.852;20.632;2023-07-16T04:58:43;98063.47;;;20.75;95.47
21359;BME280;13506;50.852;20.632;2023-07-16T05:01:11;98058.06;;;20.83;93.99
21359;BME280;13506;50.852;20.632;2023-07-16T05:03:39;98057.63;;;21.10;93.86
21359;BME280;13506;50.852;20.632;2023-07-16T05:06:08;98069.00;;;21.03;93.31
21359;BME280;13506;50.852;20.632;2023-07-16T05:08:36;98080.69;;;21.24;92.54
21359;BME280;13506;50.852;20.632;2023-07-16T05:11:04;98077.78;;;21.19;92.41
21359;BME280;13506;50.852;20.632;2023-07-16T05:13:33;98070.97;;;21.31;91.33
21359;BME280;13506;50.852;20.632;2023-07-16T05:16:01;98087.59;;;21.18;91.18
21359;BME280;13506;50.852;20.632;2023-07-16T05:18:29;98087.75;;;21.32;90.78
21359;BME280;13506;50.852;20.632;2023-07-16T05:20:57;98077.28;;;21.30;90.88
21359;BME280;13506;50.852;20.632;2023-07-16T05:23:26;98081.75;;;21.44;90.17
21359;BME280;13506;50.852;20.632;2023-07-16T05:25:54;98087.97;;;21.52;89.80
21359;BME280;13506;50.852;20.632;2023-07-16T05:28:22;98081.97;;;21.64;89.20
21359;BME280;13506;50.852;20.632;2023-07-16T05:30:59;98088.44;;;21.55;89.08
21359;BME280;13506;50.852;20.632;2023-07-16T05:33:27;98085.63;;;21.42;89.58
21359;BME280;13506;50.852;20.632;2023-07-16T05:35:55;98078.47;;;21.64;89.56
21359;BME280;13506;50.852;20.632;2023-07-16T05:38:24;98075.31;;;21.90;89.41
21359;BME280;13506;50.852;20.632;2023-07-16T05:40:52;98076.75;;;21.93;88.48
21359;BME280;13506;50.852;20.632;2023-07-16T05:43:20;98081.97;;;22.01;87.40
21359;BME280;13506;50.852;20.632;2023-07-16T05:45:49;98086.44;;;22.00;88.86
21359;BME280;13506;50.852;20.632;2023-07-16T05:48:18;98088.03;;;22.16;87.23
21359;BME280;13506;50.852;20.632;2023-07-16T05:50:46;98086.50;;;22.28;86.41
21359;BME280;13506;50.852;20.632;2023-07-16T05:53:14;98094.00;;;22.18;87.09
21359;BME280;13506;50.852;20.632;2023-07-16T05:55:43;98092.19;;;22.47;87.21
21359;BME280;13506;50.852;20.632;2023-07-16T05:58:11;98101.41;;;22.73;85.52
21359;BME280;13506;50.852;20.632;2023-07-16T06:00:39;98103.16;;;22.94;84.05
21359;BME280;13506;50.852;20.632;2023-07-16T06:03:07;98104.63;;;22.96;84.51
21359;BME280;13506;50.852;20.632;2023-07-16T06:05:37;98095.72;;;23.17;83.51
21359;BME280;13506;50.852;20.632;2023-07-16T06:08:05;98106.81;;;23.21;82.03
21359;BME280;13506;50.852;20.632;2023-07-16T06:10:34;98108.78;;;23.40;81.69
21359;BME280;13506;50.852;20.632;2023-07-16T06:13:02;98114.34;;;23.52;80.44
21359;BME280;13506;50.852;20.632;2023-07-16T06:15:30;98112.31;;;23.61;79.84
21359;BME280;13506;50.852;20.632;2023-07-16T06:17:58;98105.22;;;23.88;78.70
21359;BME280;13506;50.852;20.632;2023-07-16T06:20:26;98099.69;;;24.09;75.59
21359;BME280;13506;50.852;20.632;2023-07-16T06:22:56;98100.72;;;24.28;73.29
21359;BME280;13506;50.852;20.632;2023-07-16T06:25:24;98110.19;;;24.18;70.67
21359;BME280;13506;50.852;20.632;2023-07-16T06:27:52;98113.69;;;24.58;69.14
21359;BME280;13506;50.852;20.632;2023-07-16T06:30:21;98116.00;;;24.55;68.27
21359;BME280;13506;50.852;20.632;2023-07-16T06:32:48;98113.31;;;24.55;66.97
21359;BME280;13506;50.852;20.632;2023-07-16T06:35:17;98114.75;;;24.57;66.88
21359;BME280;13506;50.852;20.632;2023-07-16T06:37:44;98119.44;;;24.75;68.06
21359;BME280;13506;50.852;20.632;2023-07-16T06:40:15;98109.72;;;25.14;67.06
21359;BME280;13506;50.852;20.632;2023-07-16T06:42:43;98116.28;;;25.18;65.91
21359;BME280;13506;50.852;20.632;2023-07-16T06:45:11;98115.84;;;25.28;65.09
21359;BME280;13506;50.852;20.632;2023-07-16T06:47:39;98115.31;;;25.51;64.25
21359;BME280;13506;50.852;20.632;2023-07-16T06:50:08;98117.41;;;25.49;63.99
21359;BME280;13506;50.852;20.632;2023-07-16T06:52:36;98120.78;;;25.76;63.54
21359;BME280;13506;50.852;20.632;2023-07-16T06:55:05;98115.09;;;25.98;62.96
21359;BME280;13506;50.852;20.632;2023-07-16T06:57:35;98109.78;;;25.91;62.88
21359;BME280;13506;50.852;20.632;2023-07-16T07:00:04;98113.50;;;26.22;62.06
21359;BME280;13506;50.852;20.632;2023-07-16T07:02:32;98119.31;;;26.44;61.63
21359;BME280;13506;50.852;20.632;2023-07-16T07:05:01;98121.81;;;26.64;60.60
21359;BME280;13506;50.852;20.632;2023-07-16T07:07:30;98126.47;;;26.75;59.87
21359;BME280;13506;50.852;20.632;2023-07-16T07:09:58;98133.81;;;26.86;60.42
21359;BME280;13506;50.852;20.632;2023-07-16T07:12:26;98134.06;;;26.78;59.58
21359;BME280;13506;50.852;20.632;2023-07-16T07:14:56;98149.19;;;26.98;60.06
21359;BME280;13506;50.852;20.632;2023-07-16T07:17:23;98155.75;;;27.20;59.34
21359;BME280;13506;50.852;20.632;2023-07-16T07:19:52;98156.41;;;27.41;59.28
21359;BME280;13506;50.852;20.632;2023-07-16T07:22:19;98173.84;;;27.68;59.36
21359;BME280;13506;50.852;20.632;2023-07-16T07:24:48;98188.00;;;27.94;58.03
21359;BME280;13506;50.852;20.632;2023-07-16T07:27:17;98198.13;;;28.10;56.88
21359;BME280;13506;50.852;20.632;2023-07-16T07:29:45;98198.53;;;28.26;55.87
21359;BME280;13506;50.852;20.632;2023-07-16T07:32:20;98199.97;;;28.40;54.65
21359;BME280;13506;50.852;20.632;2023-07-16T07:34:48;98196.53;;;28.63;53.78
21359;BME280;13506;50.852;20.632;2023-07-16T07:37:16;98188.47;;;28.87;52.84
21359;BME280;13506;50.852;20.632;2023-07-16T07:39:44;98167.72;;;28.99;51.66
21359;BME280;13506;50.852;20.632;2023-07-16T07:42:14;98166.78;;;28.93;51.21
21359;BME280;13506;50.852;20.632;2023-07-16T07:44:42;98164.09;;;29.17;51.45
21359;BME280;13506;50.852;20.632;2023-07-16T07:47:10;98173.09;;;29.34;50.52
21359;BME280;13506;50.852;20.632;2023-07-16T07:49:40;98187.00;;;29.55;49.87
21359;BME280;13506;50.852;20.632;2023-07-16T07:52:08;98185.59;;;29.64;49.29
21359;BME280;13506;50.852;20.632;2023-07-16T07:54:37;98179.63;;;29.91;48.96
21359;BME280;13506;50.852;20.632;2023-07-16T07:57:05;98164.09;;;30.10;47.61
21359;BME280;13506;50.852;20.632;2023-07-16T07:59:34;98172.44;;;30.25;47.39
21359;BME280;13506;50.852;20.632;2023-07-16T08:02:01;98178.25;;;30.34;45.49
21359;BME280;13506;50.852;20.632;2023-07-16T08:04:30;98174.59;;;30.57;45.71
21359;BME280;13506;50.852;20.632;2023-07-16T08:06:59;98170.78;;;30.70;44.99
21359;BME280;13506;50.852;20.632;2023-07-16T08:09:28;98170.88;;;30.75;44.40
21359;BME280;13506;50.852;20.632;2023-07-16T08:11:56;98174.78;;;30.84;44.46
21359;BME280;13506;50.852;20.632;2023-07-16T08:14:24;98168.19;;;30.97;43.58
21359;BME280;13506;50.852;20.632;2023-07-16T08:16:52;98168.19;;;31.14;43.62
21359;BME280;13506;50.852;20.632;2023-07-16T08:19:20;98165.44;;;31.31;43.94
21359;BME280;13506;50.852;20.632;2023-07-16T08:21:48;98163.56;;;31.53;44.34
21359;BME280;13506;50.852;20.632;2023-07-16T08:24:17;98163.50;;;31.70;42.82
21359;BME280;13506;50.852;20.632;2023-07-16T08:26:45;98157.59;;;31.73;41.66
21359;BME280;13506;50.852;20.632;2023-07-16T08:29:14;98162.44;;;31.71;41.45
21359;BME280;13506;50.852;20.632;2023-07-16T08:31:41;98164.16;;;31.83;41.43
21359;BME280;13506;50.852;20.632;2023-07-16T08:34:09;98167.81;;;31.93;41.43
21359;BME280;13506;50.852;20.632;2023-07-16T08:36:38;98157.91;;;32.04;41.30
21359;BME280;13506;50.852;20.632;2023-07-16T08:39:06;98171.06;;;32.17;41.66
21359;BME280;13506;50.852;20.632;2023-07-16T08:41:36;98169.03;;;32.35;40.70
21359;BME280;13506;50.852;20.632;2023-07-16T08:44:05;98167.22;;;32.46;40.57
21359;BME280;13506;50.852;20.632;2023-07-16T08:46:33;98178.44;;;32.60;40.92
21359;BME280;13506;50.852;20.632;2023-07-16T08:49:02;98172.06;;;32.71;40.16
21359;BME280;13506;50.852;20.632;2023-07-16T08:51:31;98164.84;;;32.87;40.59
21359;BME280;13506;50.852;20.632;2023-07-16T08:53:59;98164.69;;;33.04;41.16
21359;BME280;13506;50.852;20.632;2023-07-16T08:56:27;98161.41;;;33.02;40.30
21359;BME280;13506;50.852;20.632;2023-07-16T08:58:58;98168.19;;;33.04;40.67
21359;BME280;13506;50.852;20.632;2023-07-16T09:01:26;98168.47;;;33.03;41.02
21359;BME280;13506;50.852;20.632;2023-07-16T09:03:55;98159.25;;;33.04;41.11
21359;BME280;13506;50.852;20.632;2023-07-16T09:06:23;98164.13;;;33.07;40.72
21359;BME280;13506;50.852;20.632;2023-07-16T09:08:51;98159.31;;;33.14;41.07
21359;BME280;13506;50.852;20.632;2023-07-16T09:11:19;98151.19;;;33.14;40.50
21359;BME280;13506;50.852;20.632;2023-07-16T09:13:49;98171.00;;;33.14;40.88
21359;BME280;13506;50.852;20.632;2023-07-16T09:16:19;98163.69;;;33.15;41.16
21359;BME280;13506;50.852;20.632;2023-07-16T09:18:48;98163.25;;;33.38;40.34
21359;BME280;13506;50.852;20.632;2023-07-16T09:21:16;98160.88;;;33.05;40.67
21359;BME280;13506;50.852;20.632;2023-07-16T09:23:45;98164.88;;;32.97;40.58
21359;BME280;13506;50.852;20.632;2023-07-16T09:26:13;98147.75;;;32.86;40.79
21359;BME280;13506;50.852;20.632;2023-07-16T09:28:41;98154.09;;;33.07;40.45
21359;BME280;13506;50.852;20.632;2023-07-16T09:31:09;98156.94;;;33.23;40.25
21359;BME280;13506;50.852;20.632;2023-07-16T09:33:40;98161.63;;;33.43;40.08
21359;BME280;13506;50.852;20.632;2023-07-16T09:36:08;98145.59;;;33.36;40.16
21359;BME280;13506;50.852;20.632;2023-07-16T09:38:36;98152.94;;;33.46;39.37
21359;BME280;13506;50.852;20.632;2023-07-16T09:41:06;98150.25;;;33.46;39.77
21359;BME280;13506;50.852;20.632;2023-07-16T09:43:35;98155.91;;;33.39;39.73
21359;BME280;13506;50.852;20.632;2023-07-16T09:46:03;98150.00;;;33.52;39.46
21359;BME280;13506;50.852;20.632;2023-07-16T09:48:32;98144.81;;;33.41;39.67
21359;BME280;13506;50.852;20.632;2023-07-16T09:51:02;98152.66;;;33.37;39.22
21359;BME280;13506;50.852;20.632;2023-07-16T09:53:31;98154.81;;;33.35;39.93
21359;BME280;13506;50.852;20.632;2023-07-16T09:56:00;98148.91;;;33.48;39.38
21359;BME280;13506;50.852;20.632;2023-07-16T09:58:31;98146.78;;;33.61;39.02
21359;BME280;13506;50.852;20.632;2023-07-16T10:01:00;98142.75;;;33.63;38.50
21359;BME280;13506;50.852;20.632;2023-07-16T10:03:29;98147.00;;;33.54;38.07
21359;BME280;13506;50.852;20.632;2023-07-16T10:06:07;98148.13;;;33.58;38.67
21359;BME280;13506;50.852;20.632;2023-07-16T10:08:36;98149.56;;;33.76;38.04
21359;BME280;13506;50.852;20.632;2023-07-16T10:11:04;98140.91;;;33.84;37.91
21359;BME280;13506;50.852;20.632;2023-07-16T10:13:43;98146.56;;;33.77;38.42
21359;BME280;13506;50.852;20.632;2023-07-16T10:16:20;98139.81;;;33.85;38.81
21359;BME280;13506;50.852;20.632;2023-07-16T10:18:51;98138.19;;;34.05;38.55
21359;BME280;13506;50.852;20.632;2023-07-16T10:21:25;98129.78;;;34.06;38.53
21359;BME280;13506;50.852;20.632;2023-07-16T10:23:58;98154.78;;;34.03;38.28
21359;BME280;13506;50.852;20.632;2023-07-16T10:26:30;98141.22;;;34.08;39.02
21359;BME280;13506;50.852;20.632;2023-07-16T10:28:58;98144.47;;;34.15;39.02
21359;BME280;13506;50.852;20.632;2023-07-16T10:31:26;98149.63;;;34.32;39.12
21359;BME280;13506;50.852;20.632;2023-07-16T10:34:01;98140.16;;;34.25;39.66
21359;BME280;13506;50.852;20.632;2023-07-16T10:36:37;98138.50;;;34.34;39.97
21359;BME280;13506;50.852;20.632;2023-07-16T10:39:05;98141.75;;;34.26;38.62
21359;BME280;13506;50.852;20.632;2023-07-16T10:41:34;98148.81;;;34.22;38.19
21359;BME280;13506;50.852;20.632;2023-07-16T10:44:03;98144.50;;;34.31;38.92
21359;BME280;13506;50.852;20.632;2023-07-16T10:46:31;98146.66;;;34.44;39.02
21359;BME280;13506;50.852;20.632;2023-07-16T10:49:00;98136.59;;;34.45;37.73
21359;BME280;13506;50.852;20.632;2023-07-16T10:51:28;98141.78;;;34.46;38.78
21359;BME280;13506;50.852;20.632;2023-07-16T10:53:58;98142.31;;;34.53;39.21
21359;BME280;13506;50.852;20.632;2023-07-16T10:56:26;98149.13;;;34.61;38.75
21359;BME280;13506;50.852;20.632;2023-07-16T10:58:55;98150.75;;;34.77;39.50
21359;BME280;13506;50.852;20.632;2023-07-16T11:01:23;98152.03;;;34.95;38.86
21359;BME280;13506;50.852;20.632;2023-07-16T11:03:51;98143.09;;;34.85;38.51
21359;BME280;13506;50.852;20.632;2023-07-16T11:06:19;98151.56;;;34.63;38.22
21359;BME280;13506;50.852;20.632;2023-07-16T11:08:48;98147.75;;;34.53;38.84
21359;BME280;13506;50.852;20.632;2023-07-16T11:11:28;98143.94;;;34.34;38.61
21359;BME280;13506;50.852;20.632;2023-07-16T11:13:57;98144.41;;;33.90;38.80
21359;BME280;13506;50.852;20.632;2023-07-16T11:16:25;98152.50;;;33.64;38.95
21359;BME280;13506;50.852;20.632;2023-07-16T11:18:53;98143.03;;;33.72;39.32
21359;BME280;13506;50.852;20.632;2023-07-16T11:21:21;98146.75;;;33.55;40.12
21359;BME280;13506;50.852;20.632;2023-07-16T11:23:49;98157.97;;;33.74;39.11
21359;BME280;13506;50.852;20.632;2023-07-16T11:26:18;98156.38;;;33.94;38.50
21359;BME280;13506;50.852;20.632;2023-07-16T11:28:49;98159.69;;;34.16;37.48
21359;BME280;13506;50.852;20.632;2023-07-16T11:31:17;98160.25;;;34.29;37.47
21359;BME280;13506;50.852;20.632;2023-07-16T11:33:46;98153.97;;;34.28;37.35
21359;BME280;13506;50.852;20.632;2023-07-16T11:36:16;98152.09;;;34.29;38.12
21359;BME280;13506;50.852;20.632;2023-07-16T11:38:44;98155.09;;;34.27;38.65
21359;BME280;13506;50.852;20.632;2023-07-16T11:41:12;98146.94;;;34.12;37.89
21359;BME280;13506;50.852;20.632;2023-07-16T11:43:42;98149.31;;;33.93;38.16
21359;BME280;13506;50.852;20.632;2023-07-16T11:46:16;98159.59;;;33.75;38.73
21359;BME280;13506;50.852;20.632;2023-07-16T11:48:44;98149.22;;;33.57;39.12
21359;BME280;13506;50.852;20.632;2023-07-16T11:51:13;98148.19;;;33.63;39.93
21359;BME280;13506;50.852;20.632;2023-07-16T11:53:41;98148.44;;;33.62;39.92
21359;BME280;13506;50.852;20.632;2023-07-16T11:56:09;98144.91;;;33.66;38.83
21359;BME280;13506;50.852;20.632;2023-07-16T11:58:37;98149.00;;;33.79;38.60
21359;BME280;13506;50.852;20.632;2023-07-16T12:01:06;98141.16;;;33.88;38.30
21359;BME280;13506;50.852;20.632;2023-07-16T12:03:34;98143.88;;;33.88;38.47
21359;BME280;13506;50.852;20.632;2023-07-16T12:06:03;98145.47;;;33.68;38.86
21359;BME280;13506;50.852;20.632;2023-07-16T12:08:30;98147.09;;;33.69;38.65
21359;BME280;13506;50.852;20.632;2023-07-16T12:10:59;98140.63;;;33.91;38.97
21359;BME280;13506;50.852;20.632;2023-07-16T12:13:27;98141.50;;;34.12;38.68
21359;BME280;13506;50.852;20.632;2023-07-16T12:15:54;98152.09;;;34.29;37.60
21359;BME280;13506;50.852;20.632;2023-07-16T12:18:24;98153.19;;;34.38;37.86
21359;BME280;13506;50.852;20.632;2023-07-16T12:20:53;98144.75;;;34.45;37.33
21359;BME280;13506;50.852;20.632;2023-07-16T12:23:21;98130.38;;;34.59;36.51
21359;BME280;13506;50.852;20.632;2023-07-16T12:25:49;98153.44;;;34.62;35.77
21359;BME280;13506;50.852;20.632;2023-07-16T12:28:17;98149.38;;;34.59;36.87
21359;BME280;13506;50.852;20.632;2023-07-16T12:30:46;98135.25;;;34.68;37.10
21359;BME280;13506;50.852;20.632;2023-07-16T12:33:14;98135.22;;;34.73;36.90
21359;BME280;13506;50.852;20.632;2023-07-16T12:35:43;98146.41;;;34.61;37.24
21359;BME280;13506;50.852;20.632;2023-07-16T12:38:12;98145.59;;;34.55;37.39
21359;BME280;13506;50.852;20.632;2023-07-16T12:40:40;98133.63;;;34.46;37.40
21359;BME280;13506;50.852;20.632;2023-07-16T12:43:08;98142.06;;;34.39;37.83
21359;BME280;13506;50.852;20.632;2023-07-16T12:45:35;98141.22;;;34.59;37.23
21359;BME280;13506;50.852;20.632;2023-07-16T12:48:04;98138.00;;;34.63;37.25
21359;BME280;13506;50.852;20.632;2023-07-16T12:50:32;98135.50;;;34.51;37.36
21359;BME280;13506;50.852;20.632;2023-07-16T12:53:02;98147.78;;;34.58;37.05
21359;BME280;13506;50.852;20.632;2023-07-16T12:55:29;98136.63;;;34.55;36.88
21359;BME280;13506;50.852;20.632;2023-07-16T12:57:59;98134.44;;;34.47;36.98
21359;BME280;13506;50.852;20.632;2023-07-16T13:00:27;98133.06;;;34.24;37.18